Time;durP1;ratioP1;P1;durP2;ratioP2;P2;SDS_P1;SDS_P2;PMS_P1;PMS_P2;Temp;Humidity;BMP_temperature;BMP_pressure;BME280_temperature;BME280_humidity;BME280_pressure;Samples;Min_cycle;Max_cycle;Signal;HPM_P1;HPM_P2
2021/05/01 00:01:41;;;;;;;8.90;5.68;;;9.60;77.10;;;;;;3558475;40;20089;-64
2021/05/01 00:04:07;;;;;;;9.40;6.53;;;9.50;77.50;;;;;;3557068;40;20527;-65
2021/05/01 00:06:32;;;;;;;10.40;6.25;;;9.50;77.20;;;;;;3555255;40;20111;-64
2021/05/01 00:08:58;;;;;;;9.50;5.47;;;9.50;76.90;;;;;;3553732;40;20046;-64
2021/05/01 00:11:25;;;;;;;9.77;5.60;;;9.40;77.90;;;;;;3552893;40;20140;-65
2021/05/01 00:13:56;;;;;;;9.52;5.75;;;9.30;78.30;;;;;;3555139;40;20069;-64
2021/05/01 00:16:23;;;;;;;9.48;5.40;;;9.20;79.20;;;;;;3558119;40;20045;-64
2021/05/01 00:18:49;;;;;;;8.55;5.78;;;8.90;80.70;;;;;;3556619;40;20029;-65
2021/05/01 00:21:15;;;;;;;11.60;5.80;;;8.80;81.50;;;;;;3555078;40;20113;-65
2021/05/01 00:23:40;;;;;;;9.88;5.75;;;8.90;81.60;;;;;;3553373;40;20077;-64
2021/05/01 00:26:06;;;;;;;11.90;5.95;;;9.00;81.00;;;;;;3554087;40;20026;-64
2021/05/01 00:28:32;;;;;;;9.25;5.90;;;9.20;80.20;;;;;;3555993;40;20026;-64
2021/05/01 00:30:57;;;;;;;8.13;5.13;;;9.30;80.00;;;;;;3557618;40;20205;-64
2021/05/01 00:33:23;;;;;;;10.15;5.13;;;9.30;79.70;;;;;;3549809;40;20376;-64
2021/05/01 00:35:49;;;;;;;9.32;5.80;;;9.40;79.60;;;;;;3551591;40;20041;-64
2021/05/01 00:38:14;;;;;;;9.50;6.30;;;9.40;79.30;;;;;;3561923;40;20533;-65
2021/05/01 00:40:40;;;;;;;9.18;5.75;;;9.50;79.20;;;;;;3551036;40;20078;-63
2021/05/01 00:43:06;;;;;;;8.73;6.38;;;9.50;78.70;;;;;;3558675;40;20037;-64
2021/05/01 00:45:31;;;;;;;8.98;6.13;;;9.50;78.80;;;;;;3557310;40;20567;-64
2021/05/01 00:47:57;;;;;;;11.18;6.22;;;9.50;78.60;;;;;;3546365;40;20070;-65
2021/05/01 00:50:23;;;;;;;10.00;5.82;;;9.60;78.60;;;;;;3553145;40;20026;-64
2021/05/01 00:52:49;;;;;;;8.80;5.88;;;9.50;78.30;;;;;;3543637;40;20045;-64
2021/05/01 00:55:15;;;;;;;8.35;5.57;;;9.40;78.40;;;;;;3554662;40;20033;-65
2021/05/01 00:57:42;;;;;;;8.82;5.40;;;9.40;78.90;;;;;;3556209;40;20127;-64
2021/05/01 01:02:57;;;;;;;11.07;5.93;;;9.30;79.70;;;;;;3560725;40;20037;-64
2021/05/01 01:05:23;;;;;;;9.88;5.95;;;9.20;80.50;;;;;;3562496;40;20095;-64
2021/05/01 01:07:49;;;;;;;6.82;5.32;;;9.10;80.60;;;;;;3561711;40;20057;-64
2021/05/01 01:10:15;;;;;;;9.18;5.18;;;9.10;80.00;;;;;;3559953;40;20343;-64
2021/05/01 01:12:41;;;;;;;11.30;6.13;;;9.10;80.20;;;;;;3557925;40;20037;-65
2021/05/01 01:15:08;;;;;;;9.38;5.63;;;9.10;80.40;;;;;;3555655;40;20405;-64
2021/05/01 01:17:33;;;;;;;12.90;6.28;;;9.10;80.10;;;;;;3553510;40;20030;-64
2021/05/01 01:19:59;;;;;;;10.30;5.60;;;9.00;80.20;;;;;;3552872;40;20030;-64
2021/05/01 01:22:25;;;;;;;11.32;5.85;;;8.90;80.40;;;;;;3553793;40;20036;-65
2021/05/01 01:24:50;;;;;;;12.90;6.10;;;8.90;80.70;;;;;;3555806;40;20160;-64
2021/05/01 01:27:17;;;;;;;9.00;5.43;;;8.80;81.00;;;;;;3548022;40;20021;-63
2021/05/01 01:29:44;;;;;;;9.63;5.75;;;8.80;81.30;;;;;;3549780;40;20107;-64
2021/05/01 01:32:11;;;;;;;9.77;5.93;;;8.70;81.80;;;;;;3560882;40;20597;-64
2021/05/01 01:34:42;;;;;;;9.35;6.20;;;8.80;82.20;;;;;;3560518;40;20025;-64
2021/05/01 01:37:07;;;;;;;9.35;5.95;;;8.80;82.10;;;;;;3558766;40;20127;-64
2021/05/01 01:39:33;;;;;;;7.30;5.13;;;8.90;82.00;;;;;;3547032;40;20030;-64
2021/05/01 01:41:59;;;;;;;11.02;7.00;;;9.00;81.70;;;;;;3545165;40;20490;-64
2021/05/01 01:44:24;;;;;;;7.78;5.50;;;9.00;81.50;;;;;;3557127;40;20028;-64
2021/05/01 01:46:50;;;;;;;8.80;5.78;;;9.10;81.30;;;;;;3561156;40;20029;-64
2021/05/01 01:49:16;;;;;;;9.55;6.03;;;9.10;80.90;;;;;;3550583;40;20030;-64
2021/05/01 01:51:41;;;;;;;9.88;6.43;;;9.10;81.10;;;;;;3547277;40;20099;-64
2021/05/01 01:54:07;;;;;;;10.50;6.32;;;9.20;81.10;;;;;;3556318;40;20038;-64
2021/05/01 01:56:37;;;;;;;7.53;5.38;;;9.10;80.80;;;;;;3554301;40;20390;-65
2021/05/01 01:59:05;;;;;;;7.70;5.63;;;9.20;81.20;;;;;;3552556;40;20030;-65
2021/05/01 02:01:32;;;;;;;11.15;6.15;;;9.10;80.80;;;;;;3552247;40;20030;-65
2021/05/01 02:03:57;;;;;;;9.20;6.35;;;9.10;81.50;;;;;;3553228;40;20037;-63
2021/05/01 02:06:23;;;;;;;11.20;5.95;;;9.10;81.50;;;;;;3555327;40;20033;-65
2021/05/01 02:08:49;;;;;;;11.73;6.13;;;9.20;81.60;;;;;;3556882;40;20431;-64
2021/05/01 02:11:15;;;;;;;8.65;5.30;;;9.20;81.50;;;;;;3555093;40;20038;-64
2021/05/01 02:13:41;;;;;;;9.38;5.95;;;9.30;81.50;;;;;;3551583;40;20129;-64
2021/05/01 02:16:06;;;;;;;6.43;5.05;;;9.30;80.80;;;;;;3551959;40;20061;-64
2021/05/01 02:18:32;;;;;;;8.73;5.30;;;9.30;80.80;;;;;;3553946;40;20091;-64
2021/05/01 02:20:58;;;;;;;9.20;6.10;;;9.30;80.80;;;;;;3555629;40;20678;-64
2021/05/01 02:23:24;;;;;;;7.93;5.55;;;9.30;80.80;;;;;;3557481;40;20040;-64
2021/05/01 02:25:49;;;;;;;7.30;5.28;;;9.40;80.90;;;;;;3549874;40;20030;-64
2021/05/01 02:28:17;;;;;;;8.18;5.60;;;9.40;80.70;;;;;;3560502;40;20029;-64
2021/05/01 02:30:43;;;;;;;10.88;6.25;;;9.50;80.40;;;;;;3558831;40;20058;-64
2021/05/01 02:33:09;;;;;;;11.30;6.25;;;9.40;80.20;;;;;;3557313;40;20038;-64
2021/05/01 02:35:38;;;;;;;10.52;6.00;;;9.40;80.20;;;;;;3555581;40;20139;-64
2021/05/01 02:38:04;;;;;;;9.95;6.05;;;9.40;80.30;;;;;;3553582;40;20042;-64
2021/05/01 02:40:32;;;;;;;10.98;6.90;;;9.50;80.30;;;;;;3556650;40;20934;-64
2021/05/01 02:43:05;;;;;;;7.90;5.85;;;9.50;80.20;;;;;;3556125;40;20038;-64
2021/05/01 02:45:31;;;;;;;9.48;6.28;;;9.50;80.20;;;;;;3558436;40;20038;-64
2021/05/01 02:47:57;;;;;;;10.80;6.63;;;9.50;80.00;;;;;;3559522;40;20037;-64
2021/05/01 02:50:23;;;;;;;11.10;5.57;;;9.40;80.00;;;;;;3549151;40;20022;-65
2021/05/01 02:52:49;;;;;;;8.80;5.95;;;9.40;80.10;;;;;;3546695;40;20029;-64
2021/05/01 02:55:15;;;;;;;9.35;6.43;;;9.40;80.60;;;;;;3560350;40;20088;-64
2021/05/01 02:57:41;;;;;;;12.88;6.10;;;9.40;80.60;;;;;;3559995;40;20037;-64
2021/05/01 03:00:14;;;;;;;7.85;5.72;;;9.40;80.50;;;;;;3557630;40;20038;-64
2021/05/01 03:02:40;;;;;;;10.80;5.82;;;9.40;80.60;;;;;;3559068;40;20041;-64
2021/05/01 03:05:07;;;;;;;13.25;7.35;;;9.40;80.60;;;;;;3551310;40;20299;-63
2021/05/01 03:07:33;;;;;;;12.05;6.72;;;9.40;80.40;;;;;;3559347;40;20030;-64
2021/05/01 03:09:59;;;;;;;9.55;6.28;;;9.40;80.50;;;;;;3555010;40;20053;-64
2021/05/01 03:12:24;;;;;;;11.02;6.47;;;9.40;80.30;;;;;;3561462;40;20083;-59
2021/05/01 03:14:50;;;;;;;14.95;6.88;;;9.40;80.10;;;;;;3558550;40;20021;-59
2021/05/01 03:17:16;;;;;;;9.18;5.78;;;9.40;80.40;;;;;;3558177;40;20033;-59
2021/05/01 03:19:41;;;;;;;10.70;6.28;;;9.40;80.40;;;;;;3547790;40;20069;-59
2021/05/01 03:22:07;;;;;;;12.15;7.00;;;9.50;80.40;;;;;;3553286;40;20134;-59
2021/05/01 03:24:34;;;;;;;12.55;6.90;;;9.50;80.30;;;;;;3552864;40;20053;-59
2021/05/01 03:27:00;;;;;;;12.90;7.55;;;9.50;80.10;;;;;;3546634;40;20366;-59
2021/05/01 03:29:26;;;;;;;11.48;6.47;;;9.50;79.90;;;;;;3555739;40;20065;-59
2021/05/01 03:31:51;;;;;;;14.32;8.45;;;9.50;79.90;;;;;;3557549;40;20041;-59
2021/05/01 03:34:17;;;;;;;15.27;8.35;;;9.60;80.20;;;;;;3559466;40;20033;-58
2021/05/01 03:36:43;;;;;;;13.18;8.05;;;9.50;79.20;;;;;;3552358;40;20033;-59
2021/05/01 03:39:09;;;;;;;13.40;8.05;;;9.50;79.20;;;;;;3553202;40;20037;-59
2021/05/01 03:41:34;;;;;;;13.57;7.68;;;9.50;79.40;;;;;;3556764;40;20092;-59
2021/05/01 03:44:00;;;;;;;10.05;6.78;;;9.50;79.80;;;;;;3557623;40;20026;-59
2021/05/01 03:46:26;;;;;;;11.95;7.68;;;9.50;79.80;;;;;;3556470;40;20115;-59
2021/05/01 03:48:52;;;;;;;12.10;7.47;;;9.60;79.80;;;;;;3555739;40;20062;-59
2021/05/01 03:51:18;;;;;;;10.02;6.85;;;9.60;79.90;;;;;;3556251;40;20037;-59
2021/05/01 03:53:43;;;;;;;14.43;9.10;;;9.60;79.90;;;;;;3558527;40;20465;-59
2021/05/01 03:56:09;;;;;;;13.02;9.32;;;9.60;79.60;;;;;;3558807;40;20026;-59
2021/05/01 03:58:34;;;;;;;12.80;8.23;;;9.70;78.50;;;;;;3557877;40;20037;-59
2021/05/01 04:01:00;;;;;;;14.73;9.00;;;9.70;78.80;;;;;;3558460;40;20494;-59
2021/05/01 04:03:26;;;;;;;12.40;8.88;;;9.70;79.10;;;;;;3555177;40;20048;-59
2021/05/01 04:05:51;;;;;;;12.68;8.05;;;9.70;79.00;;;;;;3552921;40;20045;-59
2021/05/01 04:08:17;;;;;;;14.80;9.32;;;9.70;78.70;;;;;;3557010;40;20069;-59
2021/05/01 04:10:43;;;;;;;13.98;8.35;;;9.80;78.60;;;;;;3556849;40;20036;-59
2021/05/01 04:13:09;;;;;;;13.32;8.25;;;9.70;78.50;;;;;;3558794;40;20411;-59
2021/05/01 04:15:34;;;;;;;14.02;7.53;;;9.70;78.70;;;;;;3559527;40;20388;-59
2021/05/01 04:18:00;;;;;;;14.25;9.40;;;9.70;79.30;;;;;;3556702;40;20033;-59
2021/05/01 04:20:26;;;;;;;11.48;8.10;;;9.70;78.80;;;;;;3547464;40;20045;-59
2021/05/01 04:22:52;;;;;;;14.75;9.43;;;9.70;78.80;;;;;;3557611;40;20037;-59
2021/05/01 04:25:18;;;;;;;15.32;9.02;;;9.70;78.80;;;;;;3558105;40;20038;-59
2021/05/01 04:27:43;;;;;;;10.30;7.18;;;9.80;78.50;;;;;;3558956;40;20036;-59
2021/05/01 04:30:12;;;;;;;14.88;8.48;;;9.80;78.50;;;;;;3559770;40;20048;-59
2021/05/01 04:32:38;;;;;;;13.02;8.18;;;9.80;78.60;;;;;;3561427;40;20069;-59
2021/05/01 04:35:05;;;;;;;12.93;8.98;;;9.80;78.60;;;;;;3560391;40;20053;-59
2021/05/01 04:37:31;;;;;;;13.15;8.43;;;9.90;78.90;;;;;;3558324;40;20041;-59
2021/05/01 04:39:57;;;;;;;16.88;8.80;;;9.90;78.80;;;;;;3556646;40;20034;-59
2021/05/01 04:42:23;;;;;;;13.98;9.77;;;9.90;78.90;;;;;;3547094;40;20311;-59
2021/05/01 04:44:49;;;;;;;15.68;9.90;;;9.90;78.60;;;;;;3553395;40;20029;-59
2021/05/01 04:47:15;;;;;;;18.30;11.85;;;10.00;78.60;;;;;;3553259;40;20028;-59
2021/05/01 04:49:41;;;;;;;17.38;10.18;;;9.90;78.60;;;;;;3556585;40;20042;-59
2021/05/01 04:52:07;;;;;;;19.50;11.50;;;9.90;78.60;;;;;;3557952;40;20034;-59
2021/05/01 04:54:33;;;;;;;15.35;10.02;;;9.90;78.10;;;;;;3557135;40;20065;-59
2021/05/01 04:56:59;;;;;;;19.13;10.70;;;9.90;78.50;;;;;;3554504;40;20030;-60
2021/05/01 04:59:24;;;;;;;17.10;9.68;;;9.90;78.70;;;;;;3552616;40;20425;-59
2021/05/01 05:01:50;;;;;;;16.95;10.20;;;9.90;78.90;;;;;;3558387;40;20116;-59
2021/05/01 05:04:16;;;;;;;12.70;8.57;;;9.90;78.80;;;;;;3559076;40;20026;-59
2021/05/01 05:06:41;;;;;;;12.70;8.15;;;9.90;79.40;;;;;;3556462;40;20034;-59
2021/05/01 05:09:07;;;;;;;12.75;8.55;;;10.00;79.30;;;;;;3556522;40;20041;-59
2021/05/01 05:11:33;;;;;;;14.57;8.93;;;10.00;79.40;;;;;;3554359;40;20029;-59
2021/05/01 05:14:00;;;;;;;15.60;8.77;;;10.10;79.30;;;;;;3554836;40;20033;-59
2021/05/01 05:16:26;;;;;;;19.77;10.43;;;10.10;78.20;;;;;;3548895;40;20029;-60
2021/05/01 05:18:53;;;;;;;16.98;11.35;;;10.10;78.20;;;;;;3548321;40;20029;-59
2021/05/01 05:21:19;;;;;;;19.92;10.85;;;10.10;78.00;;;;;;3557337;40;20038;-59
2021/05/01 05:23:45;;;;;;;18.65;10.93;;;10.20;77.40;;;;;;3546566;40;20448;-59
2021/05/01 05:26:12;;;;;;;20.55;11.18;;;10.10;77.10;;;;;;3559034;40;20060;-59
2021/05/01 05:28:38;;;;;;;19.05;11.43;;;10.20;77.20;;;;;;3555344;40;20044;-59
2021/05/01 05:31:03;;;;;;;19.23;10.57;;;10.20;76.60;;;;;;3557169;40;20373;-58
2021/05/01 05:33:29;;;;;;;21.10;11.98;;;10.20;76.80;;;;;;3557937;40;20157;-59
2021/05/01 05:35:55;;;;;;;21.58;12.45;;;10.30;76.80;;;;;;3559042;40;20030;-59
2021/05/01 05:38:21;;;;;;;22.48;12.32;;;10.40;76.70;;;;;;3559172;40;20036;-59
2021/05/01 05:40:47;;;;;;;17.23;11.50;;;10.40;76.10;;;;;;3556310;40;20161;-59
2021/05/01 05:43:12;;;;;;;16.10;10.48;;;10.30;76.10;;;;;;3560188;40;20073;-59
2021/05/01 05:45:40;;;;;;;18.75;11.57;;;10.30;76.80;;;;;;3558613;40;20030;-60
2021/05/01 05:48:06;;;;;;;18.83;11.18;;;10.40;76.70;;;;;;3557205;40;20029;-59
2021/05/01 05:50:32;;;;;;;16.42;9.70;;;10.40;76.90;;;;;;3556258;40;20108;-60
2021/05/01 05:52:58;;;;;;;19.15;10.77;;;10.40;76.50;;;;;;3560050;40;20022;-59
2021/05/01 05:55:25;;;;;;;16.55;10.18;;;10.40;76.80;;;;;;3558239;40;20033;-59
2021/05/01 05:57:55;;;;;;;22.75;11.68;;;10.50;77.20;;;;;;3557965;40;20040;-59
2021/05/01 06:00:23;;;;;;;16.38;10.48;;;10.50;76.90;;;;;;3554922;40;20113;-59
2021/05/01 06:02:51;;;;;;;17.45;11.27;;;10.50;75.50;;;;;;3557348;40;20044;-61
2021/05/01 06:05:25;;;;;;;18.20;11.10;;;10.50;76.70;;;;;;3549865;40;20749;-59
2021/05/01 06:07:55;;;;;;;19.42;10.55;;;10.60;76.30;;;;;;3560693;40;20503;-59
2021/05/01 06:10:21;;;;;;;19.83;11.35;;;10.60;76.10;;;;;;3558759;40;20034;-60
2021/05/01 06:12:47;;;;;;;17.08;11.10;;;10.60;76.10;;;;;;3554177;40;20131;-61
2021/05/01 06:15:16;;;;;;;19.13;11.35;;;10.60;76.00;;;;;;3555482;40;20034;-59
2021/05/01 06:17:44;;;;;;;17.02;11.00;;;10.70;76.10;;;;;;3555761;40;20022;-59
2021/05/01 06:20:11;;;;;;;23.00;11.13;;;10.70;76.00;;;;;;3548799;40;20026;-59
2021/05/01 06:22:38;;;;;;;19.17;11.18;;;10.70;75.90;;;;;;3553686;40;20056;-60
2021/05/01 06:25:09;;;;;;;17.15;10.95;;;10.80;75.70;;;;;;3552136;40;20089;-60
2021/05/01 06:27:35;;;;;;;21.83;11.52;;;10.80;75.50;;;;;;3557634;40;20030;-60
2021/05/01 06:30:02;;;;;;;17.50;10.15;;;10.80;74.90;;;;;;3554659;40;20050;-59
2021/05/01 06:32:28;;;;;;;23.50;13.20;;;10.80;75.20;;;;;;3557451;40;20038;-64
2021/05/01 06:34:56;;;;;;;20.40;11.15;;;10.80;74.60;;;;;;3559636;40;20018;-65
2021/05/01 06:37:23;;;;;;;18.27;11.55;;;10.80;74.30;;;;;;3556308;40;20077;-64
2021/05/01 06:39:51;;;;;;;17.88;10.80;;;10.80;74.40;;;;;;3557694;40;20068;-64
2021/05/01 06:42:30;;;;;;;17.52;9.95;;;10.80;74.20;;;;;;3555129;40;20657;-65
2021/05/01 06:45:08;;;;;;;17.77;10.23;;;10.80;74.20;;;;;;3556549;40;20033;-64
2021/05/01 06:47:37;;;;;;;18.10;10.65;;;10.80;74.40;;;;;;3552231;40;20315;-65
2021/05/01 06:50:10;;;;;;;20.80;10.43;;;10.80;74.10;;;;;;3557843;40;20036;-65
2021/05/01 06:52:40;;;;;;;19.85;10.30;;;10.80;74.40;;;;;;3558112;40;20029;-65
2021/05/01 06:55:07;;;;;;;15.95;10.60;;;10.90;73.60;;;;;;3556914;40;20531;-64
2021/05/01 06:57:36;;;;;;;17.17;10.32;;;10.90;74.80;;;;;;3556990;40;20292;-65
2021/05/01 07:00:08;;;;;;;18.73;11.02;;;11.00;74.70;;;;;;3554882;40;20052;-65
2021/05/01 07:02:39;;;;;;;18.05;11.20;;;11.00;74.30;;;;;;3548710;40;20034;-64
2021/05/01 07:05:06;;;;;;;19.15;11.45;;;11.10;73.20;;;;;;3557824;40;20033;-65
2021/05/01 07:07:32;;;;;;;18.80;11.23;;;11.10;73.40;;;;;;3553088;40;20029;-65
2021/05/01 07:09:58;;;;;;;19.90;11.90;;;11.30;73.40;;;;;;3554834;40;20469;-65
2021/05/01 07:12:24;;;;;;;18.42;12.07;;;11.40;72.00;;;;;;3554360;40;20050;-64
2021/05/01 07:14:51;;;;;;;18.35;11.52;;;11.40;72.00;;;;;;3554207;40;20131;-64
2021/05/01 07:17:17;;;;;;;18.92;11.68;;;11.60;71.50;;;;;;3555519;40;20045;-64
2021/05/01 07:19:44;;;;;;;18.20;10.23;;;11.70;70.80;;;;;;3557851;40;20053;-65
2021/05/01 07:22:11;;;;;;;23.38;12.75;;;11.90;71.00;;;;;;3559486;40;20021;-65
2021/05/01 07:24:36;;;;;;;19.23;12.70;;;12.10;70.20;;;;;;3557720;40;20077;-63
2021/05/01 07:27:04;;;;;;;17.17;11.15;;;12.40;70.30;;;;;;3557618;40;20029;-65
2021/05/01 07:29:50;;;;;;;19.27;12.13;;;12.80;68.00;;;;;;3558323;40;20122;-64
2021/05/01 07:32:17;;;;;;;21.08;13.18;;;13.10;67.60;;;;;;3558700;40;20070;-65
2021/05/01 07:34:50;;;;;;;16.75;11.45;;;13.40;65.80;;;;;;3555668;40;20030;-65
2021/05/01 07:37:20;;;;;;;19.02;12.30;;;13.50;64.60;;;;;;3555529;40;20021;-64
2021/05/01 07:39:53;;;;;;;20.20;12.30;;;13.80;64.50;;;;;;3556094;40;20043;-65
2021/05/01 07:42:23;;;;;;;18.10;12.23;;;14.20;62.00;;;;;;3554950;40;20085;-64
2021/05/01 07:44:52;;;;;;;17.15;11.32;;;14.20;61.30;;;;;;3550093;40;20492;-64
2021/05/01 07:47:22;;;;;;;17.38;11.43;;;14.30;60.40;;;;;;3554704;40;20033;-65
2021/05/01 07:49:49;;;;;;;16.48;10.85;;;14.50;60.70;;;;;;3557486;40;20030;-65
2021/05/01 07:52:17;;;;;;;20.48;11.30;;;14.90;60.20;;;;;;3556762;40;20033;-65
2021/05/01 07:54:43;;;;;;;17.92;11.07;;;15.20;58.90;;;;;;3558267;40;20115;-65
2021/05/01 07:57:12;;;;;;;13.93;9.88;;;15.10;58.40;;;;;;3554694;40;20026;-65
2021/05/01 07:59:38;;;;;;;14.82;10.23;;;15.10;58.40;;;;;;3558427;40;20092;-65
2021/05/01 08:02:04;;;;;;;16.30;9.77;;;15.30;58.40;;;;;;3560957;40;20037;-65
2021/05/01 08:04:31;;;;;;;13.30;9.75;;;15.10;58.10;;;;;;3558486;40;20029;-65
2021/05/01 08:06:57;;;;;;;17.02;10.30;;;15.30;57.40;;;;;;3560009;40;20029;-66
2021/05/01 08:09:23;;;;;;;16.80;10.43;;;15.60;58.90;;;;;;3559570;40;20064;-65
2021/05/01 08:11:49;;;;;;;13.00;10.25;;;16.10;55.50;;;;;;3561086;40;20034;-65
2021/05/01 08:14:15;;;;;;;13.80;9.63;;;16.50;53.70;;;;;;3561188;40;20041;-65
2021/05/01 08:16:41;;;;;;;13.23;10.15;;;16.60;53.90;;;;;;3560386;40;20654;-65
2021/05/01 08:19:06;;;;;;;12.20;8.82;;;16.30;53.80;;;;;;3559889;40;20390;-66
2021/05/01 08:21:35;;;;;;;16.13;9.80;;;16.20;54.00;;;;;;3560273;40;20018;-64
2021/05/01 08:24:04;;;;;;;13.43;9.60;;;15.90;56.20;;;;;;3558562;40;20074;-66
2021/05/01 08:26:30;;;;;;;13.35;9.88;;;15.70;57.80;;;;;;3552787;40;20034;-65
2021/05/01 08:28:56;;;;;;;11.95;8.55;;;15.50;58.60;;;;;;3560490;40;20029;-65
2021/05/01 08:31:22;;;;;;;14.15;9.80;;;15.30;58.80;;;;;;3559873;40;20082;-65
2021/05/01 08:33:48;;;;;;;13.68;9.52;;;15.00;59.70;;;;;;3557913;40;20538;-65
2021/05/01 08:36:13;;;;;;;14.35;10.15;;;14.90;60.40;;;;;;3553645;40;20034;-65
2021/05/01 08:38:39;;;;;;;15.65;10.02;;;14.70;60.10;;;;;;3555905;40;20061;-65
2021/05/01 08:41:06;;;;;;;16.75;10.38;;;14.50;60.00;;;;;;3559273;40;20293;-65
2021/05/01 08:43:32;;;;;;;14.80;10.05;;;14.40;61.10;;;;;;3556966;40;20034;-65
2021/05/01 08:45:59;;;;;;;13.43;9.25;;;14.20;61.10;;;;;;3546902;40;20026;-66
2021/05/01 08:48:26;;;;;;;16.17;10.32;;;14.10;62.20;;;;;;3555085;40;20042;-65
2021/05/01 08:51:01;;;;;;;15.70;10.75;;;14.10;62.60;;;;;;3557545;40;20073;-65
2021/05/01 08:53:27;;;;;;;15.77;9.85;;;14.20;61.40;;;;;;3561908;40;20033;-65
2021/05/01 08:55:53;;;;;;;11.48;8.77;;;14.80;61.00;;;;;;3559708;40;20060;-66
2021/05/01 08:58:19;;;;;;;18.98;10.68;;;15.60;59.20;;;;;;3556695;40;20022;-65
2021/05/01 09:00:47;;;;;;;16.23;9.75;;;16.30;55.30;;;;;;3554251;40;20029;-65
2021/05/01 09:03:14;;;;;;;13.60;9.77;;;16.90;55.00;;;;;;3554596;40;20346;-65
2021/05/01 09:05:41;;;;;;;13.93;9.00;;;17.20;53.30;;;;;;3556555;40;20053;-66
2021/05/01 09:08:13;;;;;;;13.02;9.23;;;17.30;51.40;;;;;;3552139;40;20046;-66
2021/05/01 09:10:46;;;;;;;13.40;9.00;;;17.50;52.10;;;;;;3552044;40;20041;-64
2021/05/01 09:13:14;;;;;;;12.25;8.52;;;17.70;50.90;;;;;;3555476;40;20347;-66
2021/05/01 09:15:53;;;;;;;12.68;9.02;;;17.70;51.30;;;;;;3546819;40;20430;-65
2021/05/01 09:18:19;;;;;;;10.02;8.07;;;17.40;49.40;;;;;;3555816;40;20022;-65
2021/05/01 09:20:45;;;;;;;11.90;7.70;;;17.20;50.50;;;;;;3545720;40;20033;-66
2021/05/01 09:23:10;;;;;;;11.73;8.25;;;17.20;51.60;;;;;;3553270;40;20033;-65
2021/05/01 09:25:54;;;;;;;13.57;8.60;;;17.30;50.20;;;;;;3543985;40;20621;-65
2021/05/01 09:28:22;;;;;;;12.55;8.18;;;17.60;49.20;;;;;;3555334;40;20489;-66
2021/05/01 09:31:06;;;;;;;12.38;8.88;;;17.60;49.10;;;;;;3556256;40;20042;-61
2021/05/01 09:33:38;;;;;;;11.00;7.85;;;17.60;48.60;;;;;;3555249;40;20037;-64
2021/05/01 09:36:21;;;;;;;12.45;8.27;;;17.80;50.00;;;;;;3554098;40;20025;-65
2021/05/01 09:38:47;;;;;;;10.05;7.85;;;18.10;49.80;;;;;;3544276;40;20034;-65
2021/05/01 09:41:24;;;;;;;10.05;7.65;;;18.00;49.60;;;;;;3554092;40;20018;-66
2021/05/01 09:44:17;;;;;;;7.95;6.35;;;17.80;46.60;;;;;;3555583;40;20098;-66
2021/05/01 09:46:48;;;;;;;8.65;7.40;;;17.80;46.80;;;;;;3555534;40;20026;-65
2021/05/01 09:49:24;;;;;;;7.18;6.00;;;17.70;46.90;;;;;;3554471;40;20030;-64
2021/05/01 09:51:54;;;;;;;8.38;6.03;;;17.60;47.40;;;;;;3553538;40;20034;-66
2021/05/01 09:54:31;;;;;;;8.82;6.80;;;17.60;48.30;;;;;;3546318;40;20029;-65
2021/05/01 09:56:59;;;;;;;9.82;7.07;;;17.80;50.00;;;;;;3545558;40;20512;-65
2021/05/01 09:59:41;;;;;;;9.95;6.90;;;17.90;49.90;;;;;;3555700;40;20095;-65
2021/05/01 10:02:09;;;;;;;9.10;7.10;;;18.30;48.10;;;;;;3553320;40;20351;-65
2021/05/01 10:04:35;;;;;;;10.55;7.32;;;18.30;46.50;;;;;;3553465;40;20040;-64
2021/05/01 10:07:12;;;;;;;10.48;7.25;;;18.20;47.70;;;;;;3555670;40;20029;-64
2021/05/01 10:09:42;;;;;;;10.25;7.65;;;18.10;48.20;;;;;;3554629;40;20489;-64
2021/05/01 10:12:15;;;;;;;9.63;7.00;;;18.20;48.30;;;;;;3555171;40;20037;-64
2021/05/01 10:14:50;;;;;;;7.78;6.55;;;18.20;46.20;;;;;;3554434;40;20037;-65
2021/05/01 10:17:37;;;;;;;8.93;6.47;;;18.10;47.70;;;;;;3554944;40;20108;-72
2021/05/01 10:20:07;;;;;;;7.05;5.68;;;17.80;46.90;;;;;;3553026;40;20053;-65
2021/05/01 10:22:42;;;;;;;9.63;7.35;;;17.60;48.80;;;;;;3555963;40;20387;-65
2021/05/01 10:25:11;;;;;;;10.90;6.28;;;17.30;49.90;;;;;;3555075;40;20017;-65
2021/05/01 10:27:48;;;;;;;7.97;6.35;;;17.00;50.60;;;;;;3554767;40;20599;-65
2021/05/01 10:33:39;;;;;;;8.82;7.22;;;16.60;51.60;;;;;;3555582;40;20056;-65
2021/05/01 10:36:14;;;;;;;10.23;7.05;;;16.40;52.00;;;;;;3552394;40;20025;-66
2021/05/01 10:38:40;;;;;;;8.27;5.83;;;16.30;52.50;;;;;;3543299;40;20184;-65
2021/05/01 10:41:15;;;;;;;7.90;6.45;;;16.70;53.80;;;;;;3554133;40;20131;-67
2021/05/01 10:43:48;;;;;;;10.40;7.30;;;17.30;51.20;;;;;;3554404;40;20111;-65
2021/05/01 10:46:25;;;;;;;9.35;7.00;;;17.70;49.50;;;;;;3542749;40;20335;-66
2021/05/01 10:48:55;;;;;;;11.32;6.43;;;17.80;48.70;;;;;;3546106;40;20026;-65
2021/05/01 10:51:26;;;;;;;8.25;6.53;;;17.70;48.30;;;;;;3544151;40;20064;-65
2021/05/01 10:54:14;;;;;;;8.80;6.43;;;17.60;46.80;;;;;;3552624;40;20029;-65
2021/05/01 10:56:45;;;;;;;8.25;6.10;;;17.50;49.20;;;;;;3553974;40;20045;-65
2021/05/01 10:59:14;;;;;;;9.68;5.70;;;17.20;50.00;;;;;;3545900;40;20342;-65
2021/05/01 11:01:47;;;;;;;8.00;5.55;;;17.10;50.90;;;;;;3554520;40;20041;-66
2021/05/01 11:04:24;;;;;;;8.38;6.93;;;16.90;51.20;;;;;;3543383;40;20048;-66
2021/05/01 11:07:02;;;;;;;9.10;7.05;;;16.70;51.20;;;;;;3552528;40;20037;-65
2021/05/01 11:09:39;;;;;;;10.23;7.07;;;16.50;52.40;;;;;;3554219;40;20709;-65
2021/05/01 11:12:09;;;;;;;10.52;7.32;;;16.40;51.60;;;;;;3551411;40;20089;-68
2021/05/01 11:14:47;;;;;;;9.52;7.45;;;16.20;52.50;;;;;;3544032;40;20398;-66
2021/05/01 11:17:33;;;;;;;10.57;7.95;;;16.00;53.60;;;;;;3555406;40;20036;-66
2021/05/01 11:20:06;;;;;;;8.65;7.13;;;15.80;53.90;;;;;;3542785;40;20022;-66
2021/05/01 11:22:37;;;;;;;10.73;7.10;;;15.60;54.90;;;;;;3553755;40;20569;-67
2021/05/01 11:25:09;;;;;;;8.77;6.82;;;15.40;55.30;;;;;;3543855;40;20030;-64
2021/05/01 11:27:38;;;;;;;9.80;7.18;;;15.30;56.50;;;;;;3555909;40;20026;-65
2021/05/01 11:30:06;;;;;;;10.25;7.15;;;15.30;55.90;;;;;;3557047;40;20081;-65
2021/05/01 11:32:32;;;;;;;13.30;9.20;;;15.20;56.30;;;;;;3556349;40;20222;-64
2021/05/01 11:35:16;;;;;;;10.30;7.72;;;15.10;55.80;;;;;;3556133;40;20330;-65
2021/05/01 11:37:52;;;;;;;11.20;7.05;;;15.10;56.10;;;;;;3558267;40;20081;-63
2021/05/01 11:40:30;;;;;;;8.75;7.05;;;15.20;57.80;;;;;;3549331;40;20435;-64
2021/05/01 11:42:58;;;;;;;8.80;6.60;;;15.30;55.70;;;;;;3552348;40;20120;-64
2021/05/01 11:45:26;;;;;;;9.25;7.65;;;15.50;57.10;;;;;;3553003;40;20038;-64
2021/05/01 11:48:00;;;;;;;11.05;8.05;;;15.70;53.70;;;;;;3545099;40;20030;-63
2021/05/01 11:50:26;;;;;;;12.18;8.15;;;15.80;53.40;;;;;;3553599;40;20041;-63
2021/05/01 11:53:24;;;;;;;8.00;6.57;;;15.90;53.80;;;;;;3547275;40;20049;-63
2021/05/01 11:55:57;;;;;;;11.73;8.18;;;16.10;53.00;;;;;;3553714;40;20065;-63
2021/05/01 11:58:34;;;;;;;11.70;7.60;;;16.30;50.50;;;;;;3555580;40;20144;-63
2021/05/01 12:01:21;;;;;;;10.85;7.07;;;16.60;52.20;;;;;;3553986;40;20083;-63
2021/05/01 12:03:58;;;;;;;8.45;6.53;;;16.90;50.50;;;;;;3550000;40;20042;-64
2021/05/01 12:06:33;;;;;;;10.68;7.90;;;17.30;49.60;;;;;;3555189;40;20135;-65
2021/05/01 12:09:05;;;;;;;12.07;6.93;;;17.50;47.50;;;;;;3548780;40;20026;-65
2021/05/01 12:11:33;;;;;;;8.85;7.00;;;17.70;49.10;;;;;;3551898;40;20065;-65
2021/05/01 12:13:59;;;;;;;10.88;7.80;;;17.60;45.70;;;;;;3555009;40;20030;-65
2021/05/01 12:16:25;;;;;;;9.63;7.28;;;17.70;45.70;;;;;;3556656;40;20135;-65
2021/05/01 12:18:53;;;;;;;8.15;5.93;;;17.60;48.00;;;;;;3555578;40;20034;-65
2021/05/01 12:21:21;;;;;;;9.18;6.10;;;17.60;47.90;;;;;;3542243;40;20036;-64
2021/05/01 12:23:52;;;;;;;5.80;5.20;;;17.70;46.00;;;;;;3553384;40;20037;-61
2021/05/01 12:26:35;;;;;;;9.07;6.47;;;17.60;47.00;;;;;;3556355;40;20033;-61
2021/05/01 12:29:20;;;;;;;10.93;7.25;;;17.60;47.40;;;;;;3554946;40;20504;-61
2021/05/01 12:31:47;;;;;;;10.80;8.32;;;17.60;48.70;;;;;;3552633;40;20057;-60
2021/05/01 12:34:13;;;;;;;10.65;7.45;;;17.70;48.60;;;;;;3542124;40;20536;-61
2021/05/01 12:36:44;;;;;;;9.88;7.57;;;17.50;47.70;;;;;;3557365;40;20437;-60
2021/05/01 12:39:11;;;;;;;8.90;7.03;;;17.40;49.00;;;;;;3553738;40;20040;-60
2021/05/01 12:41:41;;;;;;;8.70;7.13;;;17.10;47.90;;;;;;3553868;40;20515;-60
2021/05/01 12:44:07;;;;;;;8.90;6.88;;;17.00;49.10;;;;;;3544678;40;20021;-60
2021/05/01 12:46:36;;;;;;;8.27;7.03;;;17.20;48.60;;;;;;3551144;40;20030;-60
2021/05/01 12:49:04;;;;;;;10.30;7.63;;;17.30;50.20;;;;;;3549932;40;20023;-60
2021/05/01 12:51:50;;;;;;;8.90;7.47;;;17.50;47.30;;;;;;3552683;40;20100;-60
2021/05/01 12:54:21;;;;;;;7.90;6.72;;;17.50;46.10;;;;;;3544615;40;20363;-60